Time,TemperatureF,DewpointF,PressureIn,WindDirection,WindDirectionDegrees,WindSpeedMPH,WindSpeedGustMPH,Humidity,HourlyPrecipIn,Conditions,Clouds,dailyrainin,SoftwareType,DateUTC
2013-09-29 00:08:00,68.2,68.0,30.03,SW,215,0.0,0.0,99,0.00,,,0.00,weatherlink.com 1.10,2013-09-29 05:08:00,
2013-09-29 00:23:00,67.7,68.0,30.03,SW,215,0.0,0.0,100,0.00,,,0.00,weatherlink.com 1.10,2013-09-29 05:23:00,
2013-09-29 00:38:00,67.2,67.0,30.03,SW,215,0.0,0.0,100,0.00,,,0.00,weatherlink.com 1.10,2013-09-29 05:38:00,
2013-09-29 00:53:00,67.1,67.0,30.03,SW,215,0.0,0.0,100,0.00,,,0.00,weatherlink.com 1.10,2013-09-29 05:53:00,
2013-09-29 01:08:00,67.0,67.0,30.02,SW,215,0.0,0.0,100,0.00,,,0.00,weatherlink.com 1.10,2013-09-29 06:08:00,
2013-09-29 01:23:00,67.2,67.0,30.02,SW,215,0.0,0.0,100,0.00,,,0.00,weatherlink.com 1.10,2013-09-29 06:23:00,
2013-09-29 01:38:00,66.9,67.0,30.02,SW,215,0.0,0.0,100,0.00,,,0.00,weatherlink.com 1.10,2013-09-29 06:38:00,
2013-09-29 01:53:00,66.8,67.0,30.02,SW,215,0.0,0.0,100,0.00,,,0.00,weatherlink.com 1.10,2013-09-29 06:53:00,
2013-09-29 02:08:00,66.8,67.0,30.01,SSW,212,0.0,0.0,100,0.00,,,0.00,weatherlink.com 1.10,2013-09-29 07:08:00,
2013-09-29 02:23:00,66.8,67.0,30.01,East,85,0.0,0.0,100,0.00,,,0.00,weatherlink.com 1.10,2013-09-29 07:23:00,
2013-09-29 02:38:00,66.9,67.0,30.01,East,84,0.0,0.0,100,0.00,,,0.00,weatherlink.com 1.10,2013-09-29 07:38:00,
2013-09-29 02:53:00,67.1,67.0,30.01,ENE,68,0.0,1.0,100,0.00,,,0.00,weatherlink.com 1.10,2013-09-29 07:53:00,
2013-09-29 03:08:00,67.6,67.0,30.01,ENE,72,0.0,0.0,99,0.00,,,0.00,weatherlink.com 1.10,2013-09-29 08:08:00,
2013-09-29 03:23:00,67.8,67.0,30.00,East,95,0.0,1.0,98,0.00,,,0.00,weatherlink.com 1.10,2013-09-29 08:23:00,
2013-09-29 03:38:00,68.0,67.0,30.00,ESE,117,0.0,1.0,96,0.00,,,0.00,weatherlink.com 1.10,2013-09-29 08:38:00,
2013-09-29 03:53:00,68.1,67.0,29.99,NNE,29,0.0,3.0,95,0.00,,,0.00,weatherlink.com 1.10,2013-09-29 08:53:00,
2013-09-29 04:08:00,68.2,67.0,30.00,ENE,72,0.0,2.0,94,0.00,,,0.00,weatherlink.com 1.10,2013-09-29 09:08:00,
2013-09-29 04:23:00,68.1,66.0,29.99,ENE,75,1.0,2.0,93,0.00,,,0.00,weatherlink.com 1.10,2013-09-29 09:23:00,
2013-09-29 04:38:00,68.1,66.0,29.99,ENE,70,0.0,2.0,93,0.00,,,0.00,weatherlink.com 1.10,2013-09-29 09:38:00,
2013-09-29 05:08:00,67.4,66.0,30.00,NE,53,0.0,0.0,94,0.00,,,0.00,weatherlink.com 1.10,2013-09-29 10:08:00,
2013-09-29 05:23:00,67.6,66.0,30.00,NE,52,0.0,3.0,93,0.00,,,0.00,weatherlink.com 1.10,2013-09-29 10:23:00,
2013-09-29 05:38:00,67.4,65.0,30.00,NE,50,0.0,0.0,93,0.00,,,0.00,weatherlink.com 1.10,2013-09-29 10:38:00,
2013-09-29 05:53:00,67.3,65.0,30.00,ENE,72,0.0,2.0,92,0.00,,,0.00,weatherlink.com 1.10,2013-09-29 10:53:00,
2013-09-29 06:08:00,67.1,65.0,30.00,NE,43,0.0,0.0,92,0.00,,,0.00,weatherlink.com 1.10,2013-09-29 11:08:00,
2013-09-29 06:23:00,67.1,65.0,30.00,NE,41,0.0,2.0,92,0.00,,,0.00,weatherlink.com 1.10,2013-09-29 11:23:00,
2013-09-29 06:38:00,67.2,65.0,30.00,NE,41,0.0,2.0,92,0.00,,,0.00,weatherlink.com 1.10,2013-09-29 11:38:00,
2013-09-29 06:53:00,67.3,65.0,30.01,East,96,0.0,2.0,92,0.00,,,0.00,weatherlink.com 1.10,2013-09-29 11:53:00,
2013-09-29 07:08:00,67.7,65.0,30.01,ENE,76,0.0,1.0,91,0.00,,,0.00,weatherlink.com 1.10,2013-09-29 12:08:00,
2013-09-29 07:23:00,68.2,65.0,30.01,East,84,1.0,3.0,89,0.00,,,0.00,weatherlink.com 1.10,2013-09-29 12:23:00,
2013-09-29 07:38:00,68.7,65.0,30.02,ENE,68,0.0,3.0,89,0.00,,,0.00,weatherlink.com 1.10,2013-09-29 12:38:00,
2013-09-29 07:53:00,69.4,66.0,30.02,East,79,0.0,4.0,88,0.00,,,0.00,weatherlink.com 1.10,2013-09-29 12:53:00,
2013-09-29 08:08:00,69.8,66.0,30.02,East,84,0.0,4.0,86,0.00,,,0.00,weatherlink.com 1.10,2013-09-29 13:08:00,
2013-09-29 08:23:00,70.2,66.0,30.02,NE,53,2.0,3.0,87,0.00,,,0.00,weatherlink.com 1.10,2013-09-29 13:23:00,
2013-09-29 08:39:00,71.5,67.0,30.02,ENE,70,1.0,4.0,85,0.00,,,0.00,weatherlink.com 1.10,2013-09-29 13:39:00,
2013-09-29 08:54:00,72.8,67.0,30.03,NE,52,3.0,7.0,82,0.00,,,0.00,weatherlink.com 1.10,2013-09-29 13:54:00,
2013-09-29 09:09:00,74.2,68.0,30.03,ENE,60,1.0,5.0,81,0.00,,,0.00,weatherlink.com 1.10,2013-09-29 14:09:00,
2013-09-29 09:24:00,75.1,69.0,30.03,ENE,61,1.0,6.0,80,0.00,,,0.00,weatherlink.com 1.10,2013-09-29 14:24:00,
2013-09-29 09:39:00,76.0,69.0,30.03,East,99,3.0,5.0,78,0.00,,,0.00,weatherlink.com 1.10,2013-09-29 14:39:00,
2013-09-29 09:54:00,76.8,69.0,30.03,NE,39,2.0,7.0,76,0.00,,,0.00,weatherlink.com 1.10,2013-09-29 14:54:00,
2013-09-29 10:09:00,77.2,69.0,30.02,NE,39,1.0,6.0,76,0.00,,,0.00,weatherlink.com 1.10,2013-09-29 15:09:00,
2013-09-29 10:24:00,77.6,70.0,30.03,ENE,74,3.0,3.0,76,0.00,,,0.00,weatherlink.com 1.10,2013-09-29 15:24:00,
2013-09-29 10:39:00,79.6,71.0,30.03,NE,56,3.0,5.0,75,0.00,,,0.00,weatherlink.com 1.10,2013-09-29 15:39:00,
2013-09-29 10:54:00,79.4,69.0,30.03,NE,54,2.0,5.0,70,0.00,,,0.00,weatherlink.com 1.10,2013-09-29 15:54:00,
2013-09-29 11:09:00,80.9,69.0,30.03,East,83,2.0,6.0,68,0.00,,,0.00,weatherlink.com 1.10,2013-09-29 16:09:00,
2013-09-29 11:24:00,80.8,69.0,30.02,East,90,2.0,8.0,67,0.00,,,0.00,weatherlink.com 1.10,2013-09-29 16:24:00,
2013-09-29 11:39:00,81.2,69.0,30.02,East,98,3.0,6.0,66,0.00,,,0.00,weatherlink.com 1.10,2013-09-29 16:39:00,
2013-09-29 11:54:00,81.9,69.0,30.01,WNW,285,0.0,5.0,65,0.00,,,0.00,weatherlink.com 1.10,2013-09-29 16:54:00,
2013-09-29 12:09:00,82.1,69.0,30.01,NNW,339,0.0,8.0,65,0.00,,,0.00,weatherlink.com 1.10,2013-09-29 17:09:00,
2013-09-29 12:24:00,83.7,70.0,30.00,NE,36,1.0,5.0,63,0.00,,,0.00,weatherlink.com 1.10,2013-09-29 17:24:00,
2013-09-29 12:40:00,83.0,69.0,30.00,NNE,18,3.0,6.0,63,0.00,,,0.00,weatherlink.com 1.10,2013-09-29 17:40:00,
2013-09-29 12:55:00,82.8,70.0,29.99,East,96,2.0,5.0,66,0.00,,,0.00,weatherlink.com 1.10,2013-09-29 17:55:00,
2013-09-29 13:10:00,84.1,69.0,29.99,East,94,1.0,4.0,61,0.00,,,0.00,weatherlink.com 1.10,2013-09-29 18:10:00,
2013-09-29 13:25:00,83.9,68.0,29.98,NW,317,0.0,4.0,60,0.00,,,0.00,weatherlink.com 1.10,2013-09-29 18:25:00,
2013-09-29 13:40:00,84.3,69.0,29.97,NNE,13,2.0,4.0,60,0.00,,,0.00,weatherlink.com 1.10,2013-09-29 18:40:00,
2013-09-29 13:55:00,84.9,70.0,29.96,ENE,64,1.0,5.0,61,0.00,,,0.00,weatherlink.com 1.10,2013-09-29 18:55:00,
2013-09-29 14:10:00,83.9,69.0,29.96,NE,53,1.0,5.0,62,0.00,,,0.00,weatherlink.com 1.10,2013-09-29 19:10:00,
2013-09-29 14:25:00,82.6,71.0,29.95,NE,45,0.0,3.0,67,0.00,,,0.00,weatherlink.com 1.10,2013-09-29 19:25:00,
2013-09-29 14:40:00,82.4,70.0,29.95,East,82,0.0,3.0,66,0.00,,,0.00,weatherlink.com 1.10,2013-09-29 19:40:00,
2013-09-29 14:55:00,82.6,69.0,29.94,NNE,32,6.0,6.0,63,0.00,,,0.00,weatherlink.com 1.10,2013-09-29 19:55:00,
2013-09-29 15:10:00,84.3,70.0,29.94,ENE,67,2.0,5.0,62,0.00,,,0.00,weatherlink.com 1.10,2013-09-29 20:10:00,
2013-09-29 15:25:00,84.1,69.0,29.93,SE,131,3.0,5.0,61,0.00,,,0.00,weatherlink.com 1.10,2013-09-29 20:25:00,
2013-09-29 15:40:00,84.1,69.0,29.93,NNE,14,0.0,4.0,61,0.00,,,0.00,weatherlink.com 1.10,2013-09-29 20:40:00,
2013-09-29 15:55:00,83.1,69.0,29.94,NNE,32,0.0,5.0,63,0.00,,,0.00,weatherlink.com 1.10,2013-09-29 20:55:00,
2013-09-29 16:10:00,81.8,69.0,29.94,NNE,27,0.0,2.0,65,0.00,,,0.00,weatherlink.com 1.10,2013-09-29 21:10:00,
2013-09-29 16:25:00,80.6,69.0,29.94,NNE,31,0.0,1.0,68,0.00,,,0.00,weatherlink.com 1.10,2013-09-29 21:25:00,
2013-09-29 16:40:00,80.1,69.0,29.94,NE,34,0.0,0.0,68,0.00,,,0.00,weatherlink.com 1.10,2013-09-29 21:40:00,
2013-09-29 16:55:00,80.1,69.0,29.94,NE,34,0.0,0.0,69,0.00,,,0.00,weatherlink.com 1.10,2013-09-29 21:55:00,
2013-09-29 17:10:00,79.9,69.0,29.94,NE,46,0.0,0.0,70,0.00,,,0.00,weatherlink.com 1.10,2013-09-29 22:10:00,
2013-09-29 17:25:00,79.2,69.0,29.94,ENE,58,0.0,2.0,71,0.00,,,0.00,weatherlink.com 1.10,2013-09-29 22:25:00,
2013-09-29 17:40:00,78.4,69.0,29.95,ENE,58,0.0,0.0,73,0.00,,,0.00,weatherlink.com 1.10,2013-09-29 22:40:00,
2013-09-29 17:55:00,77.9,69.0,29.95,ENE,58,0.0,0.0,74,0.00,,,0.00,weatherlink.com 1.10,2013-09-29 22:55:00,
2013-09-29 18:10:00,77.4,69.0,29.95,NE,39,0.0,0.0,76,0.00,,,0.00,weatherlink.com 1.10,2013-09-29 23:10:00,
2013-09-29 18:25:00,76.9,69.0,29.96,NE,51,0.0,1.0,77,0.00,,,0.00,weatherlink.com 1.10,2013-09-29 23:25:00,
2013-09-29 18:40:00,76.4,69.0,29.96,NNE,33,0.0,1.0,78,0.00,,,0.00,weatherlink.com 1.10,2013-09-29 23:40:00,
2013-09-29 18:55:00,75.9,69.0,29.96,NE,44,0.0,1.0,79,0.00,,,0.00,weatherlink.com 1.10,2013-09-29 23:55:00,
2013-09-29 19:10:00,75.5,69.0,29.96,NW,319,0.0,-999.0,80,-99.99,,,0.00,weatherlink.com 1.10,2013-09-30 00:10:00,
2013-09-29 19:25:00,75.1,69.0,29.96,NE,49,0.0,0.0,81,0.00,,,0.00,weatherlink.com 1.10,2013-09-30 00:25:00,
2013-09-29 19:40:00,74.8,69.0,29.96,North,4,0.0,0.0,82,0.00,,,0.00,weatherlink.com 1.10,2013-09-30 00:40:00,
2013-09-29 19:55:00,74.4,69.0,29.96,NE,46,0.0,0.0,83,0.00,,,0.00,weatherlink.com 1.10,2013-09-30 00:55:00,
2013-09-29 20:10:00,74.2,69.0,29.97,NE,46,0.0,0.0,84,0.00,,,0.00,weatherlink.com 1.10,2013-09-30 01:10:00,
2013-09-29 20:25:00,74.2,69.0,29.97,NE,44,0.0,0.0,84,0.00,,,0.00,weatherlink.com 1.10,2013-09-30 01:25:00,
2013-09-29 20:40:00,74.0,69.0,29.98,NE,44,0.0,0.0,85,0.00,,,0.00,weatherlink.com 1.10,2013-09-30 01:40:00,
2013-09-29 20:55:00,74.0,69.0,29.97,ENE,69,0.0,0.0,85,0.00,,,0.00,weatherlink.com 1.10,2013-09-30 01:55:00,
2013-09-29 21:10:00,74.1,69.0,29.97,ENE,76,0.0,1.0,83,0.00,,,0.00,weatherlink.com 1.10,2013-09-30 02:10:00,
2013-09-29 21:25:00,74.2,68.0,29.97,East,101,0.0,1.0,82,0.00,,,0.00,weatherlink.com 1.10,2013-09-30 02:25:00,
2013-09-29 21:40:00,74.1,68.0,29.97,NE,47,0.0,2.0,82,0.00,,,0.00,weatherlink.com 1.10,2013-09-30 02:40:00,
2013-09-29 21:55:00,73.5,69.0,29.97,East,91,0.0,0.0,85,0.00,,,0.00,weatherlink.com 1.10,2013-09-30 02:55:00,
2013-09-29 22:10:00,72.8,69.0,29.97,NE,46,0.0,0.0,87,0.00,,,0.00,weatherlink.com 1.10,2013-09-30 03:10:00,
2013-09-29 22:25:00,72.7,69.0,29.96,NE,48,0.0,1.0,87,0.00,,,0.00,weatherlink.com 1.10,2013-09-30 03:25:00,
2013-09-29 22:40:00,72.7,69.0,29.96,NNE,13,1.0,3.0,87,0.00,,,0.00,weatherlink.com 1.10,2013-09-30 03:40:00,
2013-09-29 22:55:00,72.7,68.0,29.96,East,85,0.0,1.0,86,0.00,,,0.00,weatherlink.com 1.10,2013-09-30 03:55:00,
2013-09-29 23:10:00,72.6,68.0,29.95,ENE,69,0.0,1.0,86,0.00,,,0.00,weatherlink.com 1.10,2013-09-30 04:10:00,
2013-09-29 23:25:00,72.4,68.0,29.95,East,86,0.0,2.0,86,0.00,,,0.00,weatherlink.com 1.10,2013-09-30 04:25:00,
2013-09-29 23:40:00,72.2,68.0,29.95,NE,48,0.0,1.0,86,0.00,,,0.00,weatherlink.com 1.10,2013-09-30 04:40:00,
2013-09-29 23:55:00,72.1,68.0,29.95,ENE,68,0.0,0.0,86,0.00,,,0.00,weatherlink.com 1.10,2013-09-30 04:55:00,